Terminal Aerodrome Forecast
Issued by NWS Green Bay, WI

Home | Current Version | Previous Version | Text Only | Print | Product List | Glossary Off
Versions: 1 2 3 4 5 6 7 8 9 10 11 12 13 14 15 16

000
FTUS43 KGRB 221738
TAFGRB
TAF
KGRB 221738Z 2218/2318 23011G16KT P6SM FEW040
     FM230300 20009KT P6SM FEW090
     FM231600 21012G19KT P6SM FEW100 SCT200=

USA.gov is the U.S. government's official web portal to all federal, state and local government web resources and services.